createdAt,value
2018-08-30T00:01:24.865Z,10.00
2018-08-30T00:03:53.204Z,9.50
2018-08-30T00:06:21.559Z,10.08
2018-08-30T00:08:50.011Z,11.33
2018-08-30T00:11:18.445Z,12.03
2018-08-30T00:13:46.781Z,12.43
2018-08-30T00:16:15.147Z,13.55
2018-08-30T00:18:43.633Z,13.80
2018-08-30T00:21:11.980Z,14.17
2018-08-30T00:23:40.312Z,14.47
2018-08-30T00:26:08.629Z,18.43
2018-08-30T00:28:37.055Z,17.73
2018-08-30T00:31:05.448Z,18.43
2018-08-30T00:33:33.752Z,18.73
2018-08-30T00:36:02.233Z,18.10
2018-08-30T00:38:30.588Z,17.07
2018-08-30T00:40:58.945Z,16.70
2018-08-30T00:43:27.336Z,14.85
2018-08-30T00:45:55.732Z,15.40
2018-08-30T00:48:24.129Z,15.33
2018-08-30T00:50:52.522Z,15.93
2018-08-30T00:53:20.820Z,15.70
2018-08-30T00:55:49.105Z,15.50
2018-08-30T00:58:17.402Z,14.37
2018-08-30T01:00:45.746Z,13.60
2018-08-30T01:03:14.150Z,14.65
2018-08-30T01:05:42.438Z,15.17
2018-08-30T01:08:10.709Z,14.43
2018-08-30T01:10:39.084Z,14.00
2018-08-30T01:13:07.444Z,12.37
2018-08-30T01:15:35.719Z,12.78
2018-08-30T01:18:04.143Z,12.13
2018-08-30T01:20:32.429Z,12.20
2018-08-30T01:23:00.759Z,11.90
2018-08-30T01:25:29.128Z,12.15
2018-08-30T01:27:57.430Z,11.57
2018-08-30T01:30:25.779Z,12.03
2018-08-30T01:32:54.116Z,12.23
2018-08-30T01:35:23.443Z,12.80
2018-08-30T01:37:51.732Z,14.60
2018-08-30T01:40:20.105Z,16.73
2018-08-30T01:42:48.426Z,16.90
2018-08-30T01:45:16.697Z,17.42
2018-08-30T01:47:44.988Z,18.12
2018-08-30T01:50:13.330Z,20.77
2018-08-30T01:52:41.708Z,20.37
2018-08-30T01:55:10.097Z,21.23
2018-08-30T01:57:38.484Z,22.80
2018-08-30T02:00:06.877Z,23.00
2018-08-30T02:02:35.257Z,22.27
2018-08-30T02:05:03.633Z,21.13
2018-08-30T02:07:31.881Z,25.97
2018-08-30T02:10:00.233Z,24.23
2018-08-30T02:12:28.515Z,25.85
2018-08-30T02:14:56.898Z,25.12
2018-08-30T02:17:25.249Z,25.43
2018-08-30T02:19:53.510Z,22.90
2018-08-30T02:22:21.878Z,23.18
2018-08-30T02:24:50.161Z,22.30
2018-08-30T02:27:18.514Z,23.90
2018-08-30T02:29:46.789Z,21.68
2018-08-30T02:32:15.168Z,22.43
2018-08-30T02:34:43.522Z,21.15
2018-08-30T02:37:11.911Z,20.00
2018-08-30T02:39:40.297Z,18.97
2018-08-30T02:42:08.631Z,18.83
2018-08-30T02:44:37.037Z,17.43
2018-08-30T02:47:05.629Z,18.83
2018-08-30T02:49:33.927Z,15.72
2018-08-30T02:52:02.287Z,16.87
2018-08-30T02:54:30.874Z,19.25
2018-08-30T02:56:59.329Z,17.03
2018-08-30T02:59:27.743Z,16.23
2018-08-30T03:01:56.246Z,18.50
2018-08-30T03:04:24.586Z,17.55
2018-08-30T03:06:52.905Z,17.77
2018-08-30T03:09:21.247Z,17.17
2018-08-30T03:11:49.535Z,17.17
2018-08-30T03:14:17.908Z,16.67
2018-08-30T03:16:46.192Z,16.27
2018-08-30T03:19:14.517Z,16.70
2018-08-30T03:21:42.956Z,18.90
2018-08-30T03:24:11.414Z,19.13
2018-08-30T03:26:39.730Z,17.85
2018-08-30T03:29:08.084Z,17.30
2018-08-30T03:31:36.451Z,17.90
2018-08-30T03:34:04.905Z,16.80
2018-08-30T03:36:33.337Z,16.87
2018-08-30T03:39:01.688Z,15.03
2018-08-30T03:41:30.047Z,16.80
2018-08-30T03:43:58.425Z,15.18
2018-08-30T03:46:26.816Z,15.53
2018-08-30T03:48:55.189Z,15.08
2018-08-30T03:51:23.569Z,14.93
2018-08-30T03:53:51.869Z,16.10
2018-08-30T03:56:20.224Z,15.57
2018-08-30T03:58:48.497Z,15.48
2018-08-30T04:01:16.902Z,16.90
2018-08-30T04:03:45.357Z,16.70
2018-08-30T04:06:13.721Z,17.07
2018-08-30T04:08:42.130Z,17.00
2018-08-30T04:11:10.496Z,16.80
2018-08-30T04:13:38.929Z,17.40
2018-08-30T04:16:07.217Z,17.52
2018-08-30T04:18:35.646Z,17.70
2018-08-30T04:21:03.938Z,17.40
2018-08-30T04:23:32.230Z,17.83
2018-08-30T04:26:00.537Z,18.17
2018-08-30T04:28:28.904Z,18.02
2018-08-30T04:30:57.321Z,18.70
2018-08-30T04:33:25.671Z,17.73
2018-08-30T04:35:54.051Z,18.23
2018-08-30T04:38:22.357Z,18.87
2018-08-30T04:40:50.730Z,18.07
2018-08-30T04:43:19.040Z,18.23
2018-08-30T04:45:47.571Z,18.33
2018-08-30T04:48:15.883Z,18.77
2018-08-30T04:50:44.185Z,19.17
2018-08-30T04:53:12.501Z,19.50
2018-08-30T04:55:40.810Z,19.07
2018-08-30T04:58:09.118Z,19.23
2018-08-30T05:00:37.363Z,18.47
2018-08-30T05:03:05.819Z,19.65
2018-08-30T05:05:34.132Z,18.17
2018-08-30T05:08:02.399Z,16.93
2018-08-30T05:10:30.744Z,18.82
2018-08-30T05:12:59.246Z,18.47
2018-08-30T05:15:27.963Z,17.42
2018-08-30T05:17:56.523Z,17.97
2018-08-30T05:20:24.876Z,18.67
2018-08-30T05:22:53.465Z,17.60
2018-08-30T05:25:21.851Z,17.23
2018-08-30T05:27:50.220Z,17.10
2018-08-30T05:30:18.692Z,16.93
2018-08-30T05:32:47.119Z,17.95
2018-08-30T05:35:15.557Z,18.60
2018-08-30T05:37:44.005Z,18.32
2018-08-30T05:40:12.458Z,18.20
2018-08-30T05:42:40.844Z,17.87
2018-08-30T05:45:09.181Z,16.40
2018-08-30T05:47:37.585Z,15.35
2018-08-30T05:50:06.131Z,14.90
2018-08-30T05:52:34.534Z,14.07
2018-08-30T05:55:03.194Z,13.73
2018-08-30T05:57:31.688Z,15.35
2018-08-30T06:00:00.161Z,14.57
2018-08-30T06:02:29.355Z,15.07
2018-08-30T06:04:57.999Z,15.43
2018-08-30T06:07:26.860Z,14.75
2018-08-30T06:09:55.208Z,14.93
2018-08-30T06:12:23.798Z,15.40
2018-08-30T06:14:52.161Z,16.07
2018-08-30T06:17:20.552Z,14.63
2018-08-30T06:19:48.879Z,15.03
2018-08-30T06:22:17.217Z,15.50
2018-08-30T06:24:45.589Z,14.38
2018-08-30T06:27:14.000Z,15.07
2018-08-30T06:29:42.340Z,14.68
2018-08-30T06:32:10.732Z,14.70
2018-08-30T06:34:40.086Z,13.90
2018-08-30T06:37:08.563Z,14.50
2018-08-30T06:39:36.881Z,14.13
2018-08-30T06:42:06.300Z,13.57
2018-08-30T06:44:34.596Z,13.32
2018-08-30T06:47:03.249Z,13.37
2018-08-30T06:49:31.600Z,13.22
2018-08-30T06:51:59.928Z,14.23
2018-08-30T06:54:28.271Z,13.38
2018-08-30T06:56:56.933Z,12.33
2018-08-30T06:59:25.383Z,13.53
2018-08-30T07:01:53.668Z,12.40
2018-08-30T07:04:22.102Z,12.53
2018-08-30T07:06:50.429Z,12.50
2018-08-30T07:09:18.905Z,12.70
2018-08-30T07:11:47.261Z,12.47
2018-08-30T07:14:15.641Z,12.73
2018-08-30T07:16:44.164Z,13.32
2018-08-30T07:19:12.602Z,12.10
2018-08-30T07:21:40.960Z,13.43
2018-08-30T07:24:09.436Z,13.33
2018-08-30T07:26:37.791Z,11.60
2018-08-30T07:29:06.271Z,12.57
2018-08-30T07:31:34.584Z,13.13
2018-08-30T07:34:02.952Z,12.00
2018-08-30T07:36:31.238Z,11.93
2018-08-30T07:38:59.533Z,12.60
2018-08-30T07:41:27.791Z,11.40
2018-08-30T07:43:56.029Z,11.28
2018-08-30T07:46:24.344Z,11.87
2018-08-30T07:48:52.613Z,11.40
2018-08-30T07:51:20.942Z,11.15
2018-08-30T07:53:49.225Z,11.73
2018-08-30T07:56:17.555Z,11.83
2018-08-30T07:58:45.826Z,11.90
2018-08-30T08:01:14.101Z,12.60
2018-08-30T08:03:42.421Z,11.77
2018-08-30T08:06:10.775Z,11.20
2018-08-30T08:08:39.195Z,12.60
2018-08-30T08:11:07.512Z,10.55
2018-08-30T08:13:36.050Z,10.43
2018-08-30T08:16:04.326Z,11.70
2018-08-30T08:18:32.693Z,12.07
2018-08-30T08:21:01.227Z,12.20
2018-08-30T08:23:29.715Z,11.63
2018-08-30T08:25:58.133Z,10.05
2018-08-30T08:28:26.386Z,9.60
2018-08-30T08:30:54.697Z,10.10
2018-08-30T08:33:23.029Z,10.40
2018-08-30T08:35:51.289Z,10.43
2018-08-30T08:38:19.617Z,9.70
2018-08-30T08:40:47.928Z,10.13
2018-08-30T08:43:16.232Z,11.17
2018-08-30T08:45:44.577Z,10.03
2018-08-30T08:48:12.826Z,10.03
2018-08-30T08:50:41.216Z,9.77
2018-08-30T08:53:09.668Z,9.68
2018-08-30T08:55:37.972Z,9.23
2018-08-30T08:58:06.640Z,9.80
2018-08-30T09:00:35.040Z,9.80
2018-08-30T09:03:03.337Z,9.30
2018-08-30T09:05:31.795Z,9.90
2018-08-30T09:08:00.227Z,9.10
2018-08-30T09:10:28.600Z,9.47
2018-08-30T09:12:57.174Z,8.98
2018-08-30T09:15:25.532Z,8.60
2018-08-30T09:17:53.891Z,9.25
2018-08-30T09:20:22.266Z,8.87
2018-08-30T09:22:50.547Z,8.85
2018-08-30T09:25:18.887Z,8.78
2018-08-30T09:27:47.154Z,8.60
2018-08-30T09:30:15.498Z,8.40
2018-08-30T09:32:45.161Z,9.55
2018-08-30T09:35:13.448Z,8.20
2018-08-30T09:37:41.932Z,9.23
2018-08-30T09:40:10.219Z,8.40
2018-08-30T09:42:38.517Z,8.50
2018-08-30T09:45:06.843Z,8.37
2018-08-30T09:47:35.104Z,7.87
2018-08-30T09:50:03.421Z,8.05
2018-08-30T09:52:31.790Z,8.57
2018-08-30T09:55:00.101Z,8.98
2018-08-30T09:57:28.669Z,9.40
2018-08-30T09:59:56.940Z,8.33
2018-08-30T10:02:30.449Z,9.73
2018-08-30T10:04:58.692Z,8.47
2018-08-30T10:07:26.960Z,8.60
2018-08-30T10:09:55.237Z,8.80
2018-08-30T10:12:23.597Z,8.13
2018-08-30T10:14:51.883Z,8.13
2018-08-30T10:19:56.701Z,8.30
2018-08-30T10:22:25.370Z,8.50
2018-08-30T10:24:53.649Z,8.33
2018-08-30T10:27:22.103Z,7.83
2018-08-30T10:29:50.367Z,8.80
2018-08-30T10:32:18.696Z,8.53
2018-08-30T10:34:46.961Z,8.15
2018-08-30T10:37:15.193Z,7.60
2018-08-30T10:39:43.501Z,7.30
2018-08-30T10:42:11.761Z,5.92
2018-08-30T10:44:40.032Z,5.70
2018-08-30T10:47:08.348Z,5.30
2018-08-30T10:49:36.775Z,5.80
2018-08-30T10:52:04.972Z,5.77
2018-08-30T10:54:33.261Z,6.17
2018-08-30T10:57:01.501Z,5.97
2018-08-30T10:59:29.720Z,6.03
2018-08-30T11:01:58.012Z,6.20
2018-08-30T11:04:26.600Z,5.67
2018-08-30T11:06:54.793Z,6.07
2018-08-30T11:09:23.081Z,5.57
2018-08-30T11:11:51.407Z,5.78
2018-08-30T11:14:19.766Z,6.73
2018-08-30T11:16:48.020Z,6.30
2018-08-30T11:19:16.309Z,7.37
2018-08-30T11:21:44.579Z,6.80
2018-08-30T11:24:12.973Z,7.15
2018-08-30T11:26:41.261Z,6.43
2018-08-30T11:29:09.516Z,7.50
2018-08-30T11:31:37.790Z,6.87
2018-08-30T11:34:06.236Z,7.37
2018-08-30T11:36:34.620Z,6.90
2018-08-30T11:39:02.884Z,7.13
2018-08-30T11:41:31.195Z,7.60
2018-08-30T11:43:59.386Z,7.33
2018-08-30T11:46:27.671Z,6.67
2018-08-30T11:48:56.142Z,6.87
2018-08-30T11:51:24.396Z,7.37
2018-08-30T11:53:52.693Z,7.33
2018-08-30T11:56:21.055Z,7.30
2018-08-30T11:58:49.412Z,7.40
2018-08-30T12:01:25.708Z,7.25
2018-08-30T12:03:56.358Z,7.07
2018-08-30T12:06:24.828Z,7.37
2018-08-30T12:08:53.116Z,6.87
2018-08-30T12:11:21.540Z,6.83
2018-08-30T12:13:49.691Z,7.07
2018-08-30T12:16:18.045Z,6.50
2018-08-30T12:18:46.330Z,6.97
2018-08-30T12:21:14.584Z,6.75
2018-08-30T12:23:44.883Z,7.53
2018-08-30T12:26:13.083Z,7.33
2018-08-30T12:28:43.393Z,6.93
2018-08-30T12:31:11.685Z,7.47
2018-08-30T12:33:40.196Z,7.87
2018-08-30T12:36:09.555Z,7.60
2018-08-30T12:38:38.935Z,7.42
2018-08-30T12:41:07.191Z,7.40
2018-08-30T12:46:34.412Z,7.63
2018-08-30T12:49:03.071Z,7.50
2018-08-30T12:51:31.484Z,7.40
2018-08-30T12:53:59.857Z,8.40
2018-08-30T12:56:28.139Z,8.15
2018-08-30T12:59:01.808Z,7.90
2018-08-30T13:01:30.288Z,8.33
2018-08-30T13:03:58.726Z,7.60
2018-08-30T13:06:26.956Z,7.43
2018-08-30T13:08:55.317Z,7.67
2018-08-30T13:11:23.548Z,7.63
2018-08-30T13:13:51.885Z,7.27
2018-08-30T13:16:20.155Z,7.83
2018-08-30T13:18:48.354Z,7.03
2018-08-30T13:21:16.668Z,7.00
2018-08-30T13:23:45.277Z,7.25
2018-08-30T13:26:13.577Z,6.47
2018-08-30T13:28:41.906Z,7.55
2018-08-30T13:31:10.375Z,7.17
2018-08-30T13:33:38.539Z,7.37
2018-08-30T13:36:06.859Z,7.17
2018-08-30T13:38:35.235Z,6.57
2018-08-30T13:41:03.589Z,6.97
2018-08-30T13:43:31.620Z,6.60
2018-08-30T13:45:59.947Z,6.30
2018-08-30T13:48:28.121Z,6.67
2018-08-30T13:50:56.377Z,6.50
2018-08-30T13:53:24.619Z,6.73
2018-08-30T13:55:52.869Z,6.03
2018-08-30T13:58:21.235Z,6.57
2018-08-30T14:00:49.534Z,6.00
2018-08-30T14:03:17.480Z,6.35
2018-08-30T14:05:45.652Z,6.57
2018-08-30T14:08:13.921Z,6.23
2018-08-30T14:10:42.398Z,6.55
2018-08-30T14:13:10.644Z,6.17
2018-08-30T14:15:38.506Z,5.93
2018-08-30T14:18:06.766Z,6.08
2018-08-30T14:20:35.059Z,6.47
2018-08-30T14:23:03.320Z,7.00
2018-08-30T14:25:31.637Z,6.25
2018-08-30T14:27:59.914Z,6.17
2018-08-30T14:30:28.133Z,6.50
2018-08-30T14:32:56.439Z,7.20
2018-08-30T14:35:24.604Z,6.87
2018-08-30T14:37:52.948Z,6.63
2018-08-30T14:40:21.296Z,6.92
2018-08-30T14:42:49.463Z,7.20
2018-08-30T14:45:18.297Z,7.30
2018-08-30T14:47:46.581Z,7.20
2018-08-30T14:50:14.699Z,6.58
2018-08-30T14:52:42.973Z,7.00
2018-08-30T14:55:11.265Z,7.03
2018-08-30T14:57:39.485Z,6.72
2018-08-30T15:00:07.793Z,7.77
2018-08-30T15:02:36.026Z,7.20
2018-08-30T15:05:04.316Z,7.00
2018-08-30T15:07:32.520Z,7.20
2018-08-30T15:10:00.762Z,7.10
2018-08-30T15:12:29.105Z,6.97
2018-08-30T15:14:57.308Z,7.77
2018-08-30T15:17:25.689Z,6.80
2018-08-30T15:19:53.813Z,6.75
2018-08-30T15:22:22.036Z,7.23
2018-08-30T15:24:50.297Z,6.87
2018-08-30T15:27:20.857Z,6.47
2018-08-30T15:29:49.323Z,6.80
2018-08-30T15:32:17.519Z,6.95
2018-08-30T15:34:45.756Z,6.67
2018-08-30T15:37:14.028Z,6.67
2018-08-30T15:39:42.248Z,7.40
2018-08-30T15:42:10.498Z,6.03
2018-08-30T15:44:38.794Z,6.83
2018-08-30T15:47:07.256Z,6.50
2018-08-30T15:49:35.480Z,6.37
2018-08-30T15:52:03.857Z,6.93
2018-08-30T15:54:32.260Z,6.53
2018-08-30T15:57:00.617Z,6.33
2018-08-30T15:59:28.985Z,5.63
2018-08-30T16:01:57.262Z,5.83
2018-08-30T16:04:25.625Z,5.03
2018-08-30T16:06:53.966Z,5.22
2018-08-30T16:09:22.339Z,4.97
2018-08-30T16:11:50.668Z,4.60
2018-08-30T16:14:19.098Z,3.97
2018-08-30T16:16:47.505Z,4.00
2018-08-30T16:19:15.847Z,4.07
2018-08-30T16:21:44.209Z,4.08
2018-08-30T16:24:12.570Z,3.77
2018-08-30T16:26:40.783Z,4.53
2018-08-30T16:29:09.056Z,4.50
2018-08-30T16:31:37.259Z,4.40
2018-08-30T16:34:05.495Z,4.10
2018-08-30T16:36:33.785Z,4.25
2018-08-30T16:39:02.149Z,3.93
2018-08-30T16:41:30.494Z,3.67
2018-08-30T16:43:59.016Z,3.90
2018-08-30T16:46:27.297Z,4.17
2018-08-30T16:48:55.854Z,3.80
2018-08-30T16:51:23.929Z,4.03
2018-08-30T16:53:52.245Z,3.90
2018-08-30T16:56:20.631Z,4.13
2018-08-30T16:58:48.879Z,3.98
2018-08-30T17:01:17.310Z,4.50
2018-08-30T17:03:45.574Z,4.30
2018-08-30T17:06:13.950Z,4.23
2018-08-30T17:08:42.408Z,4.60
2018-08-30T17:11:10.620Z,5.10
2018-08-30T17:13:38.855Z,4.63
2018-08-30T17:16:07.160Z,4.80
2018-08-30T17:18:35.577Z,4.53
2018-08-30T17:21:03.966Z,4.67
2018-08-30T17:23:32.230Z,4.77
2018-08-30T17:26:00.599Z,4.77
2018-08-30T17:28:28.970Z,5.80
2018-08-30T17:30:57.451Z,4.57
2018-08-30T17:33:25.707Z,4.87
2018-08-30T17:35:54.019Z,5.07
2018-08-30T17:38:22.408Z,4.83
2018-08-30T17:40:50.843Z,5.20
2018-08-30T17:43:19.237Z,5.20
2018-08-30T17:45:47.536Z,5.40
2018-08-30T17:48:15.925Z,5.63
2018-08-30T17:50:44.316Z,4.87
2018-08-30T17:53:12.685Z,5.20
2018-08-30T17:55:41.112Z,5.40
2018-08-30T17:58:09.447Z,5.60
2018-08-30T18:00:37.813Z,4.83
2018-08-30T18:03:06.553Z,5.40
2018-08-30T18:05:35.815Z,5.30
2018-08-30T18:08:04.098Z,5.33
2018-08-30T18:10:32.443Z,5.40
2018-08-30T18:13:00.842Z,6.10
2018-08-30T18:15:31.559Z,8.90
2018-08-30T18:17:59.861Z,8.03
2018-08-30T18:20:28.200Z,6.97
2018-08-30T18:23:02.148Z,5.50
2018-08-30T18:25:32.567Z,5.60
2018-08-30T18:28:07.729Z,5.80
2018-08-30T18:30:40.251Z,5.80
2018-08-30T18:33:14.879Z,5.97
2018-08-30T18:35:43.206Z,6.53
2018-08-30T18:38:13.623Z,6.03
2018-08-30T18:41:00.110Z,6.23
2018-08-30T18:43:33.542Z,6.13
2018-08-30T18:46:02.909Z,5.93
2018-08-30T18:48:31.196Z,6.20
2018-08-30T18:50:59.489Z,6.40
2018-08-30T18:53:27.744Z,6.87
2018-08-30T18:55:56.020Z,6.47
2018-08-30T18:58:24.736Z,6.63
2018-08-30T19:00:53.113Z,6.27
2018-08-30T19:03:21.504Z,5.92
2018-08-30T19:05:49.741Z,6.37
2018-08-30T19:08:18.099Z,6.90
2018-08-30T19:10:46.363Z,6.85
2018-08-30T19:13:14.634Z,6.33
2018-08-30T19:17:49.017Z,7.07
2018-08-30T19:20:17.328Z,6.73
2018-08-30T19:22:45.604Z,6.73
2018-08-30T19:25:15.831Z,7.28
2018-08-30T19:27:45.411Z,6.03
2018-08-30T19:30:18.963Z,6.00
2018-08-30T19:32:47.351Z,6.57
2018-08-30T19:35:20.877Z,6.50
2018-08-30T19:37:49.157Z,6.30
2018-08-30T19:40:31.044Z,7.20
2018-08-30T19:43:00.117Z,6.90
2018-08-30T19:45:29.235Z,6.63
2018-08-30T19:47:58.137Z,6.93
2018-08-30T19:50:27.173Z,7.00
2018-08-30T19:52:55.498Z,6.90
2018-08-30T19:55:23.848Z,7.15
2018-08-30T19:57:52.331Z,6.87
2018-08-30T20:00:21.461Z,7.12
2018-08-30T20:02:49.866Z,7.83
2018-08-30T20:05:18.180Z,7.65
2018-08-30T20:07:58.796Z,7.90
2018-08-30T20:10:27.165Z,8.57
2018-08-30T20:12:55.532Z,7.78
2018-08-30T20:15:23.893Z,9.93
2018-08-30T20:17:52.231Z,9.43
2018-08-30T20:20:20.549Z,8.63
2018-08-30T20:23:07.357Z,9.47
2018-08-30T20:25:35.711Z,9.70
2018-08-30T20:28:04.137Z,9.60
2018-08-30T20:30:32.487Z,9.47
2018-08-30T20:33:01.014Z,9.83
2018-08-30T20:35:29.305Z,10.43
2018-08-30T20:37:57.600Z,9.37
2018-08-30T20:40:44.228Z,9.20
2018-08-30T20:43:12.612Z,8.33
2018-08-30T20:46:00.228Z,8.25
2018-08-30T20:48:29.597Z,8.83
2018-08-30T20:50:59.052Z,7.80
2018-08-30T20:53:27.493Z,7.73
2018-08-30T20:55:55.816Z,8.28
2018-08-30T20:58:24.178Z,8.40
2018-08-30T21:00:52.473Z,7.90
2018-08-30T21:03:20.832Z,7.23
2018-08-30T21:05:49.140Z,6.85
2018-08-30T21:08:17.613Z,7.57
2018-08-30T21:10:45.946Z,7.70
2018-08-30T21:13:14.280Z,7.20
2018-08-30T21:15:48.783Z,7.80
2018-08-30T21:18:17.161Z,8.90
2018-08-30T21:20:45.495Z,8.08
2018-08-30T21:23:13.916Z,7.97
2018-08-30T21:25:42.185Z,8.10
2018-08-30T21:28:10.458Z,8.10
2018-08-30T21:30:38.784Z,8.50
2018-08-30T21:33:07.184Z,8.68
2018-08-30T21:35:35.530Z,8.17
2018-08-30T21:38:03.885Z,7.70
2018-08-30T21:40:32.181Z,8.08
2018-08-30T21:43:00.472Z,7.23
2018-08-30T21:45:29.111Z,6.77
2018-08-30T21:47:59.379Z,6.63
2018-08-30T21:50:32.131Z,6.03
2018-08-30T21:53:00.453Z,5.87
2018-08-30T21:55:28.762Z,5.78
2018-08-30T21:57:59.106Z,6.20
2018-08-30T22:00:27.893Z,6.03
2018-08-30T22:08:49.672Z,6.10
2018-08-30T22:11:17.961Z,6.40
2018-08-30T22:13:46.244Z,6.97
2018-08-30T22:16:14.466Z,7.05
2018-08-30T22:18:57.448Z,7.00
2018-08-30T22:21:48.154Z,6.20
2018-08-30T22:24:16.424Z,5.90
2018-08-30T22:26:44.669Z,6.33
2018-08-30T22:29:12.954Z,5.75
2018-08-30T22:31:41.209Z,6.43
2018-08-30T22:34:09.559Z,6.17
2018-08-30T22:36:37.827Z,6.70
2018-08-30T22:39:07.002Z,5.17
2018-08-30T22:41:35.279Z,5.07
2018-08-30T22:44:03.554Z,5.07
2018-08-30T22:46:31.829Z,4.80
2018-08-30T22:49:00.084Z,5.23
2018-08-30T22:51:28.356Z,5.10
2018-08-30T22:53:56.758Z,5.35
2018-08-30T22:56:25.045Z,5.47
2018-08-30T22:58:53.316Z,5.00
2018-08-30T23:01:21.663Z,4.75
2018-08-30T23:03:49.931Z,4.83
2018-08-30T23:06:18.164Z,5.63
2018-08-30T23:08:46.441Z,4.75
2018-08-30T23:11:14.724Z,5.27
2018-08-30T23:13:43.071Z,4.90
2018-08-30T23:16:11.337Z,5.03
2018-08-30T23:18:39.774Z,4.83
2018-08-30T23:21:08.073Z,5.05
2018-08-30T23:23:36.441Z,5.13
2018-08-30T23:26:04.701Z,3.83
2018-08-30T23:28:33.025Z,3.27
2018-08-30T23:31:01.324Z,3.08
2018-08-30T23:33:29.582Z,4.20
2018-08-30T23:35:57.870Z,3.87
2018-08-30T23:38:26.160Z,3.27
2018-08-30T23:40:54.440Z,3.62
2018-08-30T23:43:22.721Z,3.37
2018-08-30T23:45:56.900Z,4.00
2018-08-30T23:48:25.111Z,3.40
2018-08-30T23:50:53.323Z,3.53
2018-08-30T23:53:21.564Z,3.33
2018-08-30T23:55:49.758Z,3.60
2018-08-30T23:58:29.349Z,3.50
